sensor_id;sensor_type;location;lat;lon;timestamp;P1;durP1;ratioP1;P2;durP2;ratioP2
64678;SDS011;51094;53.864;27.676;2023-05-07T00:00:35;0.85;;;0.85;;
64678;SDS011;51094;53.864;27.676;2023-05-07T00:03:02;0.80;;;0.80;;
64678;SDS011;51094;53.864;27.676;2023-05-07T00:05:29;0.98;;;0.98;;
64678;SDS011;51094;53.864;27.676;2023-05-07T00:07:56;0.90;;;0.90;;
64678;SDS011;51094;53.864;27.676;2023-05-07T00:10:25;0.80;;;0.80;;
64678;SDS011;51094;53.864;27.676;2023-05-07T00:12:52;0.80;;;0.80;;
64678;SDS011;51094;53.864;27.676;2023-05-07T00:15:19;0.82;;;0.82;;
64678;SDS011;51094;53.864;27.676;2023-05-07T00:17:46;0.70;;;0.70;;
64678;SDS011;51094;53.864;27.676;2023-05-07T00:20:13;0.88;;;0.88;;
64678;SDS011;51094;53.864;27.676;2023-05-07T00:22:39;0.80;;;0.80;;
64678;SDS011;51094;53.864;27.676;2023-05-07T00:25:06;0.93;;;0.93;;
64678;SDS011;51094;53.864;27.676;2023-05-07T00:27:34;0.90;;;0.90;;
64678;SDS011;51094;53.864;27.676;2023-05-07T00:30:03;0.70;;;0.70;;
64678;SDS011;51094;53.864;27.676;2023-05-07T00:32:30;0.80;;;0.80;;
64678;SDS011;51094;53.864;27.676;2023-05-07T00:34:57;0.85;;;0.85;;
64678;SDS011;51094;53.864;27.676;2023-05-07T00:37:24;0.90;;;0.90;;
64678;SDS011;51094;53.864;27.676;2023-05-07T00:39:51;0.85;;;0.85;;
64678;SDS011;51094;53.864;27.676;2023-05-07T00:42:17;0.88;;;0.88;;
64678;SDS011;51094;53.864;27.676;2023-05-07T00:44:46;0.80;;;0.80;;
64678;SDS011;51094;53.864;27.676;2023-05-07T00:47:13;0.80;;;0.80;;
64678;SDS011;51094;53.864;27.676;2023-05-07T00:49:41;0.80;;;0.80;;
64678;SDS011;51094;53.864;27.676;2023-05-07T00:52:10;0.90;;;0.90;;
64678;SDS011;51094;53.864;27.676;2023-05-07T00:54:40;0.98;;;0.98;;
64678;SDS011;51094;53.864;27.676;2023-05-07T00:57:09;0.80;;;0.80;;
64678;SDS011;51094;53.864;27.676;2023-05-07T00:59:37;1.00;;;1.00;;
64678;SDS011;51094;53.864;27.676;2023-05-07T01:02:04;0.80;;;0.80;;
64678;SDS011;51094;53.864;27.676;2023-05-07T01:04:31;1.10;;;1.10;;
64678;SDS011;51094;53.864;27.676;2023-05-07T01:06:59;0.90;;;0.90;;
64678;SDS011;51094;53.864;27.676;2023-05-07T01:09:28;0.95;;;0.95;;
64678;SDS011;51094;53.864;27.676;2023-05-07T01:11:55;0.90;;;0.90;;
64678;SDS011;51094;53.864;27.676;2023-05-07T01:14:41;0.95;;;0.95;;
64678;SDS011;51094;53.864;27.676;2023-05-07T01:17:08;1.00;;;1.00;;
64678;SDS011;51094;53.864;27.676;2023-05-07T01:19:36;1.05;;;1.05;;
64678;SDS011;51094;53.864;27.676;2023-05-07T01:22:07;0.93;;;0.93;;
64678;SDS011;51094;53.864;27.676;2023-05-07T01:24:47;0.90;;;0.90;;
64678;SDS011;51094;53.864;27.676;2023-05-07T01:27:20;0.80;;;0.80;;
64678;SDS011;51094;53.864;27.676;2023-05-07T01:29:49;0.90;;;0.90;;
64678;SDS011;51094;53.864;27.676;2023-05-07T01:32:15;0.80;;;0.80;;
64678;SDS011;51094;53.864;27.676;2023-05-07T01:34:47;0.90;;;0.90;;
64678;SDS011;51094;53.864;27.676;2023-05-07T01:37:17;1.05;;;1.05;;
64678;SDS011;51094;53.864;27.676;2023-05-07T01:39:44;1.00;;;1.00;;
64678;SDS011;51094;53.864;27.676;2023-05-07T01:42:13;0.90;;;0.90;;
64678;SDS011;51094;53.864;27.676;2023-05-07T01:44:40;0.90;;;0.90;;
64678;SDS011;51094;53.864;27.676;2023-05-07T01:47:07;1.00;;;1.00;;
64678;SDS011;51094;53.864;27.676;2023-05-07T01:49:35;1.00;;;1.00;;
64678;SDS011;51094;53.864;27.676;2023-05-07T01:52:02;0.85;;;0.85;;
64678;SDS011;51094;53.864;27.676;2023-05-07T01:54:31;0.90;;;0.90;;
64678;SDS011;51094;53.864;27.676;2023-05-07T01:56:59;1.08;;;1.08;;
64678;SDS011;51094;53.864;27.676;2023-05-07T01:59:26;0.80;;;0.80;;
64678;SDS011;51094;53.864;27.676;2023-05-07T02:01:53;0.77;;;0.77;;
64678;SDS011;51094;53.864;27.676;2023-05-07T02:04:20;0.90;;;0.90;;
64678;SDS011;51094;53.864;27.676;2023-05-07T02:06:47;0.85;;;0.85;;
64678;SDS011;51094;53.864;27.676;2023-05-07T02:09:15;0.90;;;0.90;;
64678;SDS011;51094;53.864;27.676;2023-05-07T02:11:46;0.90;;;0.90;;
64678;SDS011;51094;53.864;27.676;2023-05-07T02:14:22;0.80;;;0.80;;
64678;SDS011;51094;53.864;27.676;2023-05-07T02:16:48;0.90;;;0.90;;
64678;SDS011;51094;53.864;27.676;2023-05-07T02:19:16;0.95;;;0.95;;
64678;SDS011;51094;53.864;27.676;2023-05-07T02:21:43;0.80;;;0.80;;
64678;SDS011;51094;53.864;27.676;2023-05-07T02:24:09;0.80;;;0.80;;
64678;SDS011;51094;53.864;27.676;2023-05-07T02:26:36;0.80;;;0.80;;
64678;SDS011;51094;53.864;27.676;2023-05-07T02:29:03;0.90;;;0.90;;
64678;SDS011;51094;53.864;27.676;2023-05-07T02:31:30;0.90;;;0.90;;
64678;SDS011;51094;53.864;27.676;2023-05-07T02:33:58;0.70;;;0.70;;
64678;SDS011;51094;53.864;27.676;2023-05-07T02:40:01;0.70;;;0.70;;
64678;SDS011;51094;53.864;27.676;2023-05-07T02:42:30;0.70;;;0.70;;
64678;SDS011;51094;53.864;27.676;2023-05-07T02:44:57;0.80;;;0.80;;
64678;SDS011;51094;53.864;27.676;2023-05-07T02:47:24;0.80;;;0.80;;
64678;SDS011;51094;53.864;27.676;2023-05-07T02:49:54;0.80;;;0.80;;
64678;SDS011;51094;53.864;27.676;2023-05-07T02:52:21;0.70;;;0.70;;
64678;SDS011;51094;53.864;27.676;2023-05-07T02:54:48;0.75;;;0.75;;
64678;SDS011;51094;53.864;27.676;2023-05-07T02:57:15;0.90;;;0.90;;
64678;SDS011;51094;53.864;27.676;2023-05-07T02:59:42;0.80;;;0.80;;
64678;SDS011;51094;53.864;27.676;2023-05-07T03:02:11;0.77;;;0.77;;
64678;SDS011;51094;53.864;27.676;2023-05-07T03:04:39;0.70;;;0.70;;
64678;SDS011;51094;53.864;27.676;2023-05-07T03:07:06;0.90;;;0.90;;
64678;SDS011;51094;53.864;27.676;2023-05-07T03:09:33;0.88;;;0.88;;
64678;SDS011;51094;53.864;27.676;2023-05-07T03:12:00;0.85;;;0.85;;
64678;SDS011;51094;53.864;27.676;2023-05-07T03:14:28;0.80;;;0.80;;
64678;SDS011;51094;53.864;27.676;2023-05-07T03:16:55;0.80;;;0.80;;
64678;SDS011;51094;53.864;27.676;2023-05-07T03:19:22;0.90;;;0.90;;
64678;SDS011;51094;53.864;27.676;2023-05-07T03:21:49;0.90;;;0.90;;
64678;SDS011;51094;53.864;27.676;2023-05-07T03:24:16;0.80;;;0.80;;
64678;SDS011;51094;53.864;27.676;2023-05-07T03:26:42;0.90;;;0.90;;
64678;SDS011;51094;53.864;27.676;2023-05-07T03:29:09;0.90;;;0.90;;
64678;SDS011;51094;53.864;27.676;2023-05-07T03:31:36;0.80;;;0.80;;
64678;SDS011;51094;53.864;27.676;2023-05-07T03:34:03;0.93;;;0.93;;
64678;SDS011;51094;53.864;27.676;2023-05-07T03:36:30;1.00;;;1.00;;
64678;SDS011;51094;53.864;27.676;2023-05-07T03:38:57;1.00;;;1.00;;
64678;SDS011;51094;53.864;27.676;2023-05-07T03:41:32;0.90;;;0.90;;
64678;SDS011;51094;53.864;27.676;2023-05-07T03:44:00;0.98;;;0.98;;
64678;SDS011;51094;53.864;27.676;2023-05-07T03:46:26;0.90;;;0.90;;
64678;SDS011;51094;53.864;27.676;2023-05-07T03:48:55;0.95;;;0.95;;
64678;SDS011;51094;53.864;27.676;2023-05-07T03:51:24;0.90;;;0.90;;
64678;SDS011;51094;53.864;27.676;2023-05-07T03:53:53;0.90;;;0.90;;
64678;SDS011;51094;53.864;27.676;2023-05-07T03:56:21;0.80;;;0.80;;
64678;SDS011;51094;53.864;27.676;2023-05-07T03:58:53;0.98;;;0.98;;
64678;SDS011;51094;53.864;27.676;2023-05-07T04:01:20;0.90;;;0.90;;
64678;SDS011;51094;53.864;27.676;2023-05-07T04:03:47;0.90;;;0.90;;
64678;SDS011;51094;53.864;27.676;2023-05-07T04:06:15;0.85;;;0.85;;
64678;SDS011;51094;53.864;27.676;2023-05-07T04:08:46;0.90;;;0.90;;
64678;SDS011;51094;53.864;27.676;2023-05-07T04:11:13;0.98;;;0.98;;
64678;SDS011;51094;53.864;27.676;2023-05-07T04:13:42;0.90;;;0.90;;
64678;SDS011;51094;53.864;27.676;2023-05-07T04:16:09;1.00;;;1.00;;
64678;SDS011;51094;53.864;27.676;2023-05-07T04:18:39;0.90;;;0.90;;
64678;SDS011;51094;53.864;27.676;2023-05-07T04:21:15;0.90;;;0.90;;
64678;SDS011;51094;53.864;27.676;2023-05-07T04:23:43;0.90;;;0.90;;
64678;SDS011;51094;53.864;27.676;2023-05-07T04:26:15;0.90;;;0.90;;
64678;SDS011;51094;53.864;27.676;2023-05-07T04:28:43;1.00;;;1.00;;
64678;SDS011;51094;53.864;27.676;2023-05-07T04:31:10;0.75;;;0.75;;
64678;SDS011;51094;53.864;27.676;2023-05-07T04:33:39;0.85;;;0.85;;
64678;SDS011;51094;53.864;27.676;2023-05-07T04:36:09;0.90;;;0.90;;
64678;SDS011;51094;53.864;27.676;2023-05-07T04:38:42;1.10;;;1.10;;
64678;SDS011;51094;53.864;27.676;2023-05-07T04:41:09;0.98;;;0.98;;
64678;SDS011;51094;53.864;27.676;2023-05-07T04:43:42;0.90;;;0.90;;
64678;SDS011;51094;53.864;27.676;2023-05-07T04:46:10;0.95;;;0.95;;
64678;SDS011;51094;53.864;27.676;2023-05-07T04:48:38;0.95;;;0.95;;
64678;SDS011;51094;53.864;27.676;2023-05-07T04:51:06;0.90;;;0.90;;
64678;SDS011;51094;53.864;27.676;2023-05-07T04:53:33;1.00;;;1.00;;
64678;SDS011;51094;53.864;27.676;2023-05-07T04:56:00;1.00;;;1.00;;
64678;SDS011;51094;53.864;27.676;2023-05-07T04:58:33;0.90;;;0.90;;
64678;SDS011;51094;53.864;27.676;2023-05-07T05:01:00;0.90;;;0.90;;
64678;SDS011;51094;53.864;27.676;2023-05-07T05:03:27;0.98;;;0.98;;
64678;SDS011;51094;53.864;27.676;2023-05-07T05:05:55;1.00;;;1.00;;
64678;SDS011;51094;53.864;27.676;2023-05-07T05:08:22;0.95;;;0.95;;
64678;SDS011;51094;53.864;27.676;2023-05-07T05:10:49;1.00;;;1.00;;
64678;SDS011;51094;53.864;27.676;2023-05-07T05:13:17;0.90;;;0.90;;
64678;SDS011;51094;53.864;27.676;2023-05-07T05:15:45;1.00;;;1.00;;
64678;SDS011;51094;53.864;27.676;2023-05-07T05:18:12;0.88;;;0.88;;
64678;SDS011;51094;53.864;27.676;2023-05-07T05:20:39;0.80;;;0.80;;
64678;SDS011;51094;53.864;27.676;2023-05-07T05:23:07;0.80;;;0.80;;
64678;SDS011;51094;53.864;27.676;2023-05-07T05:25:34;0.93;;;0.93;;
64678;SDS011;51094;53.864;27.676;2023-05-07T05:28:01;1.00;;;1.00;;
64678;SDS011;51094;53.864;27.676;2023-05-07T05:30:30;0.80;;;0.80;;
64678;SDS011;51094;53.864;27.676;2023-05-07T05:32:57;1.10;;;1.10;;
64678;SDS011;51094;53.864;27.676;2023-05-07T05:35:26;1.02;;;1.02;;
64678;SDS011;51094;53.864;27.676;2023-05-07T05:37:53;0.90;;;0.90;;
64678;SDS011;51094;53.864;27.676;2023-05-07T05:40:21;1.10;;;1.10;;
64678;SDS011;51094;53.864;27.676;2023-05-07T05:42:49;1.17;;;1.17;;
64678;SDS011;51094;53.864;27.676;2023-05-07T05:45:16;1.20;;;1.20;;
64678;SDS011;51094;53.864;27.676;2023-05-07T05:47:44;1.00;;;1.00;;
64678;SDS011;51094;53.864;27.676;2023-05-07T05:50:12;1.20;;;1.20;;
64678;SDS011;51094;53.864;27.676;2023-05-07T05:52:39;1.17;;;1.17;;
64678;SDS011;51094;53.864;27.676;2023-05-07T05:55:07;1.20;;;1.20;;
64678;SDS011;51094;53.864;27.676;2023-05-07T05:57:36;1.20;;;1.20;;
64678;SDS011;51094;53.864;27.676;2023-05-07T06:00:06;1.40;;;1.40;;
64678;SDS011;51094;53.864;27.676;2023-05-07T06:02:44;1.40;;;1.40;;
64678;SDS011;51094;53.864;27.676;2023-05-07T06:05:19;1.20;;;1.20;;
64678;SDS011;51094;53.864;27.676;2023-05-07T06:07:51;1.40;;;1.40;;
64678;SDS011;51094;53.864;27.676;2023-05-07T06:10:18;1.30;;;1.30;;
64678;SDS011;51094;53.864;27.676;2023-05-07T06:12:47;1.40;;;1.40;;
64678;SDS011;51094;53.864;27.676;2023-05-07T06:15:15;1.08;;;1.08;;
64678;SDS011;51094;53.864;27.676;2023-05-07T06:17:42;1.00;;;1.00;;
64678;SDS011;51094;53.864;27.676;2023-05-07T06:20:10;1.20;;;1.20;;
64678;SDS011;51094;53.864;27.676;2023-05-07T06:22:39;1.23;;;1.23;;
64678;SDS011;51094;53.864;27.676;2023-05-07T06:25:07;1.02;;;1.02;;
64678;SDS011;51094;53.864;27.676;2023-05-07T06:27:35;1.10;;;1.10;;
64678;SDS011;51094;53.864;27.676;2023-05-07T06:30:02;1.25;;;1.25;;
64678;SDS011;51094;53.864;27.676;2023-05-07T06:32:29;1.10;;;1.10;;
64678;SDS011;51094;53.864;27.676;2023-05-07T06:34:56;1.13;;;1.13;;
64678;SDS011;51094;53.864;27.676;2023-05-07T06:37:22;1.20;;;1.20;;
64678;SDS011;51094;53.864;27.676;2023-05-07T06:39:56;1.20;;;1.20;;
64678;SDS011;51094;53.864;27.676;2023-05-07T06:42:35;1.05;;;1.05;;
64678;SDS011;51094;53.864;27.676;2023-05-07T06:45:23;1.10;;;1.10;;
64678;SDS011;51094;53.864;27.676;2023-05-07T06:47:53;1.23;;;1.23;;
64678;SDS011;51094;53.864;27.676;2023-05-07T06:50:23;0.93;;;0.93;;
64678;SDS011;51094;53.864;27.676;2023-05-07T06:52:54;0.98;;;0.98;;
64678;SDS011;51094;53.864;27.676;2023-05-07T06:55:21;1.00;;;1.00;;
64678;SDS011;51094;53.864;27.676;2023-05-07T06:57:49;0.90;;;0.90;;
64678;SDS011;51094;53.864;27.676;2023-05-07T07:00:17;0.82;;;0.82;;
64678;SDS011;51094;53.864;27.676;2023-05-07T07:02:51;0.90;;;0.90;;
64678;SDS011;51094;53.864;27.676;2023-05-07T07:05:21;0.90;;;0.90;;
64678;SDS011;51094;53.864;27.676;2023-05-07T07:07:48;0.98;;;0.98;;
64678;SDS011;51094;53.864;27.676;2023-05-07T07:10:23;0.90;;;0.90;;
64678;SDS011;51094;53.864;27.676;2023-05-07T07:12:52;0.70;;;0.70;;
64678;SDS011;51094;53.864;27.676;2023-05-07T07:15:20;0.57;;;0.57;;
64678;SDS011;51094;53.864;27.676;2023-05-07T07:17:52;0.75;;;0.75;;
64678;SDS011;51094;53.864;27.676;2023-05-07T07:20:19;0.80;;;0.80;;
64678;SDS011;51094;53.864;27.676;2023-05-07T07:22:49;0.80;;;0.80;;
64678;SDS011;51094;53.864;27.676;2023-05-07T07:25:19;0.80;;;0.80;;
64678;SDS011;51094;53.864;27.676;2023-05-07T07:27:48;0.80;;;0.80;;
64678;SDS011;51094;53.864;27.676;2023-05-07T07:30:20;0.90;;;0.90;;
64678;SDS011;51094;53.864;27.676;2023-05-07T07:32:53;1.02;;;1.02;;
64678;SDS011;51094;53.864;27.676;2023-05-07T07:35:20;0.90;;;0.90;;
64678;SDS011;51094;53.864;27.676;2023-05-07T07:37:48;0.80;;;0.80;;
64678;SDS011;51094;53.864;27.676;2023-05-07T07:40:19;0.90;;;0.90;;
64678;SDS011;51094;53.864;27.676;2023-05-07T07:42:49;0.82;;;0.82;;
64678;SDS011;51094;53.864;27.676;2023-05-07T07:45:16;1.00;;;1.00;;
64678;SDS011;51094;53.864;27.676;2023-05-07T07:47:46;0.90;;;0.90;;
64678;SDS011;51094;53.864;27.676;2023-05-07T07:50:13;1.00;;;1.00;;
64678;SDS011;51094;53.864;27.676;2023-05-07T07:52:58;0.85;;;0.85;;
64678;SDS011;51094;53.864;27.676;2023-05-07T07:55:28;0.90;;;0.90;;
64678;SDS011;51094;53.864;27.676;2023-05-07T07:58:00;0.93;;;0.93;;
64678;SDS011;51094;53.864;27.676;2023-05-07T08:00:27;0.90;;;0.90;;
64678;SDS011;51094;53.864;27.676;2023-05-07T08:02:55;1.00;;;1.00;;
64678;SDS011;51094;53.864;27.676;2023-05-07T08:05:27;0.90;;;0.90;;
64678;SDS011;51094;53.864;27.676;2023-05-07T08:07:54;0.90;;;0.90;;
64678;SDS011;51094;53.864;27.676;2023-05-07T08:10:30;0.90;;;0.90;;
64678;SDS011;51094;53.864;27.676;2023-05-07T08:13:07;0.80;;;0.80;;
64678;SDS011;51094;53.864;27.676;2023-05-07T08:15:39;0.88;;;0.88;;
64678;SDS011;51094;53.864;27.676;2023-05-07T08:18:06;0.90;;;0.90;;
64678;SDS011;51094;53.864;27.676;2023-05-07T08:20:33;0.80;;;0.80;;
64678;SDS011;51094;53.864;27.676;2023-05-07T08:23:11;0.90;;;0.90;;
64678;SDS011;51094;53.864;27.676;2023-05-07T08:25:39;0.77;;;0.77;;
64678;SDS011;51094;53.864;27.676;2023-05-07T08:28:09;0.90;;;0.90;;
64678;SDS011;51094;53.864;27.676;2023-05-07T08:30:38;1.00;;;1.00;;
64678;SDS011;51094;53.864;27.676;2023-05-07T08:33:08;1.00;;;1.00;;
64678;SDS011;51094;53.864;27.676;2023-05-07T08:35:35;1.30;;;1.30;;
64678;SDS011;51094;53.864;27.676;2023-05-07T08:38:02;0.85;;;0.85;;
64678;SDS011;51094;53.864;27.676;2023-05-07T08:40:36;0.90;;;0.90;;
64678;SDS011;51094;53.864;27.676;2023-05-07T08:43:14;1.08;;;1.08;;
64678;SDS011;51094;53.864;27.676;2023-05-07T08:45:42;1.05;;;1.05;;
64678;SDS011;51094;53.864;27.676;2023-05-07T08:48:17;0.93;;;0.93;;
64678;SDS011;51094;53.864;27.676;2023-05-07T08:50:50;1.10;;;1.10;;
64678;SDS011;51094;53.864;27.676;2023-05-07T08:53:18;1.20;;;1.20;;
64678;SDS011;51094;53.864;27.676;2023-05-07T08:55:51;1.10;;;1.10;;
64678;SDS011;51094;53.864;27.676;2023-05-07T08:58:19;1.10;;;1.10;;
64678;SDS011;51094;53.864;27.676;2023-05-07T09:00:46;1.00;;;1.00;;
64678;SDS011;51094;53.864;27.676;2023-05-07T09:03:16;1.00;;;1.00;;
64678;SDS011;51094;53.864;27.676;2023-05-07T09:05:46;1.10;;;1.10;;
64678;SDS011;51094;53.864;27.676;2023-05-07T09:08:16;1.10;;;1.10;;
64678;SDS011;51094;53.864;27.676;2023-05-07T09:10:46;1.10;;;1.10;;
64678;SDS011;51094;53.864;27.676;2023-05-07T09:13:15;0.90;;;0.90;;
64678;SDS011;51094;53.864;27.676;2023-05-07T09:18:12;1.30;;;1.30;;
64678;SDS011;51094;53.864;27.676;2023-05-07T09:20:43;1.13;;;1.13;;
64678;SDS011;51094;53.864;27.676;2023-05-07T09:23:10;1.20;;;1.20;;
64678;SDS011;51094;53.864;27.676;2023-05-07T09:25:37;0.90;;;0.90;;
64678;SDS011;51094;53.864;27.676;2023-05-07T09:28:12;1.20;;;1.20;;
64678;SDS011;51094;53.864;27.676;2023-05-07T09:30:40;1.02;;;1.02;;
64678;SDS011;51094;53.864;27.676;2023-05-07T09:33:11;1.20;;;1.20;;
64678;SDS011;51094;53.864;27.676;2023-05-07T09:35:44;1.20;;;1.20;;
64678;SDS011;51094;53.864;27.676;2023-05-07T09:38:16;1.20;;;1.20;;
64678;SDS011;51094;53.864;27.676;2023-05-07T09:40:52;1.15;;;1.15;;
64678;SDS011;51094;53.864;27.676;2023-05-07T09:44:07;1.10;;;1.10;;
64678;SDS011;51094;53.864;27.676;2023-05-07T09:46:44;1.13;;;1.13;;
64678;SDS011;51094;53.864;27.676;2023-05-07T09:49:23;1.10;;;1.10;;
64678;SDS011;51094;53.864;27.676;2023-05-07T09:51:59;1.02;;;1.02;;
64678;SDS011;51094;53.864;27.676;2023-05-07T09:54:31;1.20;;;1.20;;
64678;SDS011;51094;53.864;27.676;2023-05-07T09:57:05;1.10;;;1.10;;
64678;SDS011;51094;53.864;27.676;2023-05-07T09:59:35;1.15;;;1.15;;
64678;SDS011;51094;53.864;27.676;2023-05-07T10:02:09;1.20;;;1.20;;
64678;SDS011;51094;53.864;27.676;2023-05-07T10:04:46;0.90;;;0.90;;
64678;SDS011;51094;53.864;27.676;2023-05-07T10:07:18;1.00;;;1.00;;
64678;SDS011;51094;53.864;27.676;2023-05-07T10:09:53;1.00;;;1.00;;
64678;SDS011;51094;53.864;27.676;2023-05-07T10:12:30;1.00;;;1.00;;
64678;SDS011;51094;53.864;27.676;2023-05-07T10:15:08;1.00;;;1.00;;
64678;SDS011;51094;53.864;27.676;2023-05-07T10:17:46;0.80;;;0.80;;
64678;SDS011;51094;53.864;27.676;2023-05-07T10:20:16;0.80;;;0.80;;
64678;SDS011;51094;53.864;27.676;2023-05-07T10:22:47;0.90;;;0.90;;
64678;SDS011;51094;53.864;27.676;2023-05-07T10:25:26;1.02;;;1.02;;
64678;SDS011;51094;53.864;27.676;2023-05-07T10:28:01;0.88;;;0.88;;
64678;SDS011;51094;53.864;27.676;2023-05-07T10:33:13;1.00;;;1.00;;
64678;SDS011;51094;53.864;27.676;2023-05-07T10:35:45;0.90;;;0.90;;
64678;SDS011;51094;53.864;27.676;2023-05-07T10:38:16;0.90;;;0.90;;
64678;SDS011;51094;53.864;27.676;2023-05-07T10:40:46;0.80;;;0.80;;
64678;SDS011;51094;53.864;27.676;2023-05-07T10:43:16;0.70;;;0.70;;
64678;SDS011;51094;53.864;27.676;2023-05-07T10:46:13;1.10;;;1.00;;
64678;SDS011;51094;53.864;27.676;2023-05-07T10:57:44;0.80;;;0.80;;
64678;SDS011;51094;53.864;27.676;2023-05-07T11:03:08;0.70;;;0.70;;
64678;SDS011;51094;53.864;27.676;2023-05-07T11:05:47;0.68;;;0.68;;
64678;SDS011;51094;53.864;27.676;2023-05-07T11:08:55;0.65;;;0.65;;
64678;SDS011;51094;53.864;27.676;2023-05-07T11:11:49;0.90;;;0.90;;
64678;SDS011;51094;53.864;27.676;2023-05-07T11:17:21;0.60;;;0.60;;
64678;SDS011;51094;53.864;27.676;2023-05-07T11:19:55;0.70;;;0.70;;
64678;SDS011;51094;53.864;27.676;2023-05-07T11:22:49;0.60;;;0.60;;
64678;SDS011;51094;53.864;27.676;2023-05-07T11:25:26;0.70;;;0.70;;
64678;SDS011;51094;53.864;27.676;2023-05-07T11:28:06;0.70;;;0.70;;
64678;SDS011;51094;53.864;27.676;2023-05-07T11:30:43;0.80;;;0.80;;
64678;SDS011;51094;53.864;27.676;2023-05-07T11:33:19;0.70;;;0.70;;
64678;SDS011;51094;53.864;27.676;2023-05-07T11:35:51;0.80;;;0.80;;
64678;SDS011;51094;53.864;27.676;2023-05-07T11:38:22;0.75;;;0.75;;
64678;SDS011;51094;53.864;27.676;2023-05-07T11:40:50;0.70;;;0.70;;
64678;SDS011;51094;53.864;27.676;2023-05-07T11:43:22;0.80;;;0.80;;
64678;SDS011;51094;53.864;27.676;2023-05-07T11:45:54;0.70;;;0.70;;
64678;SDS011;51094;53.864;27.676;2023-05-07T11:48:34;0.60;;;0.60;;
64678;SDS011;51094;53.864;27.676;2023-05-07T11:51:04;0.70;;;0.70;;
64678;SDS011;51094;53.864;27.676;2023-05-07T11:53:39;0.60;;;0.60;;
64678;SDS011;51094;53.864;27.676;2023-05-07T11:56:10;0.60;;;0.60;;
64678;SDS011;51094;53.864;27.676;2023-05-07T11:58:44;0.60;;;0.60;;
64678;SDS011;51094;53.864;27.676;2023-05-07T12:01:13;0.77;;;0.77;;
64678;SDS011;51094;53.864;27.676;2023-05-07T12:03:43;0.70;;;0.70;;
64678;SDS011;51094;53.864;27.676;2023-05-07T12:06:13;0.60;;;0.60;;
64678;SDS011;51094;53.864;27.676;2023-05-07T12:08:42;0.60;;;0.60;;
64678;SDS011;51094;53.864;27.676;2023-05-07T12:11:21;0.70;;;0.70;;
64678;SDS011;51094;53.864;27.676;2023-05-07T12:13:49;0.60;;;0.60;;
64678;SDS011;51094;53.864;27.676;2023-05-07T12:16:19;0.60;;;0.60;;
64678;SDS011;51094;53.864;27.676;2023-05-07T12:18:49;0.63;;;0.63;;
64678;SDS011;51094;53.864;27.676;2023-05-07T12:23:43;0.60;;;0.60;;
64678;SDS011;51094;53.864;27.676;2023-05-07T12:26:11;0.60;;;0.60;;
64678;SDS011;51094;53.864;27.676;2023-05-07T12:28:38;0.60;;;0.60;;
64678;SDS011;51094;53.864;27.676;2023-05-07T12:31:07;0.60;;;0.60;;
64678;SDS011;51094;53.864;27.676;2023-05-07T12:33:37;0.60;;;0.60;;
64678;SDS011;51094;53.864;27.676;2023-05-07T12:36:07;0.50;;;0.50;;
64678;SDS011;51094;53.864;27.676;2023-05-07T12:38:39;0.50;;;0.50;;
64678;SDS011;51094;53.864;27.676;2023-05-07T12:41:08;0.60;;;0.60;;
64678;SDS011;51094;53.864;27.676;2023-05-07T12:43:42;0.60;;;0.60;;
64678;SDS011;51094;53.864;27.676;2023-05-07T12:46:14;0.52;;;0.52;;
64678;SDS011;51094;53.864;27.676;2023-05-07T12:48:46;0.60;;;0.60;;
64678;SDS011;51094;53.864;27.676;2023-05-07T12:51:13;0.50;;;0.50;;
64678;SDS011;51094;53.864;27.676;2023-05-07T12:53:42;0.60;;;0.60;;
64678;SDS011;51094;53.864;27.676;2023-05-07T12:56:09;0.50;;;0.50;;
64678;SDS011;51094;53.864;27.676;2023-05-07T12:58:40;0.50;;;0.50;;
64678;SDS011;51094;53.864;27.676;2023-05-07T13:01:09;0.50;;;0.50;;
64678;SDS011;51094;53.864;27.676;2023-05-07T13:03:38;0.50;;;0.50;;
64678;SDS011;51094;53.864;27.676;2023-05-07T13:06:08;0.50;;;0.50;;
64678;SDS011;51094;53.864;27.676;2023-05-07T13:08:37;0.50;;;0.50;;
64678;SDS011;51094;53.864;27.676;2023-05-07T13:11:07;0.60;;;0.60;;
64678;SDS011;51094;53.864;27.676;2023-05-07T13:13:35;0.50;;;0.50;;
64678;SDS011;51094;53.864;27.676;2023-05-07T13:16:06;0.50;;;0.50;;
64678;SDS011;51094;53.864;27.676;2023-05-07T13:18:34;0.60;;;0.60;;
64678;SDS011;51094;53.864;27.676;2023-05-07T13:21:02;0.52;;;0.52;;
64678;SDS011;51094;53.864;27.676;2023-05-07T13:23:32;0.50;;;0.50;;
64678;SDS011;51094;53.864;27.676;2023-05-07T13:25:59;0.55;;;0.55;;
64678;SDS011;51094;53.864;27.676;2023-05-07T13:28:37;0.50;;;0.50;;
64678;SDS011;51094;53.864;27.676;2023-05-07T13:31:04;0.50;;;0.50;;
64678;SDS011;51094;53.864;27.676;2023-05-07T13:33:31;0.50;;;0.50;;
64678;SDS011;51094;53.864;27.676;2023-05-07T13:35:58;0.52;;;0.52;;
64678;SDS011;51094;53.864;27.676;2023-05-07T13:40:57;0.73;;;0.73;;
64678;SDS011;51094;53.864;27.676;2023-05-07T13:43:27;0.70;;;0.70;;
64678;SDS011;51094;53.864;27.676;2023-05-07T13:48:23;0.55;;;0.55;;
64678;SDS011;51094;53.864;27.676;2023-05-07T13:50:50;0.70;;;0.70;;
64678;SDS011;51094;53.864;27.676;2023-05-07T13:53:17;0.60;;;0.60;;
64678;SDS011;51094;53.864;27.676;2023-05-07T13:55:44;0.60;;;0.60;;
64678;SDS011;51094;53.864;27.676;2023-05-07T13:58:11;0.57;;;0.57;;
64678;SDS011;51094;53.864;27.676;2023-05-07T14:00:38;0.60;;;0.60;;
64678;SDS011;51094;53.864;27.676;2023-05-07T14:03:07;0.60;;;0.60;;
64678;SDS011;51094;53.864;27.676;2023-05-07T14:05:36;0.70;;;0.70;;
64678;SDS011;51094;53.864;27.676;2023-05-07T14:08:03;0.65;;;0.65;;
64678;SDS011;51094;53.864;27.676;2023-05-07T14:10:31;0.60;;;0.60;;
64678;SDS011;51094;53.864;27.676;2023-05-07T14:13:01;0.60;;;0.60;;
64678;SDS011;51094;53.864;27.676;2023-05-07T14:15:30;0.60;;;0.60;;
64678;SDS011;51094;53.864;27.676;2023-05-07T14:18:04;0.80;;;0.80;;
64678;SDS011;51094;53.864;27.676;2023-05-07T14:20:31;0.88;;;0.88;;
64678;SDS011;51094;53.864;27.676;2023-05-07T14:22:58;0.80;;;0.80;;
64678;SDS011;51094;53.864;27.676;2023-05-07T14:25:25;0.75;;;0.75;;
64678;SDS011;51094;53.864;27.676;2023-05-07T14:27:56;0.80;;;0.80;;
64678;SDS011;51094;53.864;27.676;2023-05-07T14:30:23;0.82;;;0.82;;
64678;SDS011;51094;53.864;27.676;2023-05-07T14:32:53;0.80;;;0.80;;
64678;SDS011;51094;53.864;27.676;2023-05-07T14:35:20;0.60;;;0.60;;
64678;SDS011;51094;53.864;27.676;2023-05-07T14:37:47;0.68;;;0.68;;
64678;SDS011;51094;53.864;27.676;2023-05-07T14:40:13;0.60;;;0.60;;
64678;SDS011;51094;53.864;27.676;2023-05-07T14:42:41;0.80;;;0.80;;
64678;SDS011;51094;53.864;27.676;2023-05-07T14:45:08;1.67;;;1.67;;
64678;SDS011;51094;53.864;27.676;2023-05-07T14:47:36;1.10;;;1.10;;
64678;SDS011;51094;53.864;27.676;2023-05-07T14:50:03;0.80;;;0.80;;
64678;SDS011;51094;53.864;27.676;2023-05-07T14:52:31;1.00;;;1.00;;
64678;SDS011;51094;53.864;27.676;2023-05-07T14:54:57;1.10;;;1.10;;
64678;SDS011;51094;53.864;27.676;2023-05-07T14:57:27;1.65;;;1.20;;
64678;SDS011;51094;53.864;27.676;2023-05-07T14:59:58;0.70;;;0.70;;
64678;SDS011;51094;53.864;27.676;2023-05-07T15:02:27;0.70;;;0.70;;
64678;SDS011;51094;53.864;27.676;2023-05-07T15:04:58;0.60;;;0.60;;
64678;SDS011;51094;53.864;27.676;2023-05-07T15:07:25;0.52;;;0.52;;
64678;SDS011;51094;53.864;27.676;2023-05-07T15:09:55;0.70;;;0.70;;
64678;SDS011;51094;53.864;27.676;2023-05-07T15:14:55;0.73;;;0.73;;
64678;SDS011;51094;53.864;27.676;2023-05-07T15:17:22;0.75;;;0.75;;
64678;SDS011;51094;53.864;27.676;2023-05-07T15:19:49;0.55;;;0.55;;
64678;SDS011;51094;53.864;27.676;2023-05-07T15:22:19;0.70;;;0.70;;